createdAt,value
2022-09-07T00:00:31.929Z,63.47
2022-09-07T00:03:17.693Z,63.02
2022-09-07T00:06:09.277Z,63.61
2022-09-07T00:08:55.419Z,63.50
2022-09-07T00:11:40.860Z,63.03
2022-09-07T00:14:26.357Z,63.43
2022-09-07T00:17:11.623Z,63.45
2022-09-07T00:19:57.177Z,63.67
2022-09-07T00:22:42.429Z,64.12
2022-09-07T00:25:30.741Z,64.02
2022-09-07T00:28:17.325Z,64.68
2022-09-07T00:31:03.789Z,64.54
2022-09-07T00:33:50.706Z,64.50
2022-09-07T00:36:36.070Z,64.70
2022-09-07T00:39:21.309Z,63.87
2022-09-07T00:42:06.796Z,63.97
2022-09-07T00:45:01.915Z,64.07
2022-09-07T00:47:56.817Z,63.67
2022-09-07T00:50:53.578Z,64.15
2022-09-07T00:53:44.938Z,64.44
2022-09-07T00:56:34.847Z,63.90
2022-09-07T00:59:25.172Z,63.70
2022-09-07T01:02:12.332Z,63.88
2022-09-07T01:05:09.513Z,63.86
2022-09-07T01:07:56.431Z,64.29
2022-09-07T01:10:42.238Z,64.17
2022-09-07T01:13:28.025Z,63.55
2022-09-07T01:16:32.712Z,63.72
2022-09-07T01:19:27.268Z,64.03
2022-09-07T01:22:28.208Z,64.01
2022-09-07T01:25:25.933Z,63.75
2022-09-07T01:28:22.092Z,63.97
2022-09-07T01:31:42.983Z,63.97
2022-09-07T01:34:28.657Z,64.46
2022-09-07T01:37:43.547Z,64.41
2022-09-07T01:41:13.875Z,64.57
2022-09-07T01:44:40.612Z,64.51
2022-09-07T01:47:32.124Z,64.61
2022-09-07T01:50:36.331Z,64.62
2022-09-07T01:53:45.133Z,64.50
2022-09-07T01:56:36.153Z,64.06
2022-09-07T01:59:27.613Z,64.01
2022-09-07T02:02:28.648Z,64.68
2022-09-07T02:05:20.865Z,64.38
2022-09-07T02:08:10.579Z,64.80
2022-09-07T02:11:02.309Z,64.75
2022-09-07T02:13:56.682Z,64.80
2022-09-07T02:17:06.725Z,64.77
2022-09-07T02:20:03.627Z,64.69
2022-09-07T02:22:54.174Z,64.80
2022-09-07T02:25:44.726Z,64.99
2022-09-07T02:28:35.485Z,65.20
2022-09-07T02:31:21.482Z,65.27
2022-09-07T02:34:07.134Z,65.63
2022-09-07T02:36:54.133Z,65.48
2022-09-07T02:39:39.784Z,65.80
2022-09-07T02:42:35.890Z,66.10
2022-09-07T02:45:21.951Z,65.91
2022-09-07T02:48:23.126Z,65.73
2022-09-07T02:51:50.102Z,66.38
2022-09-07T02:55:00.715Z,66.13
2022-09-07T02:58:20.805Z,66.20
2022-09-07T03:01:09.123Z,66.55
2022-09-07T03:04:12.852Z,66.29
2022-09-07T03:07:30.253Z,66.11
2022-09-07T03:10:17.980Z,66.82
2022-09-07T03:13:03.810Z,66.74
2022-09-07T03:15:55.025Z,67.27
2022-09-07T03:18:42.476Z,67.36
2022-09-07T03:21:27.896Z,67.09
2022-09-07T03:24:13.094Z,67.23
2022-09-07T03:26:59.155Z,67.24
2022-09-07T03:29:44.680Z,67.24
2022-09-07T03:32:35.069Z,66.77
2022-09-07T03:35:20.594Z,67.16
2022-09-07T03:38:06.229Z,66.88
2022-09-07T03:41:06.791Z,67.18
2022-09-07T03:43:52.372Z,66.96
2022-09-07T03:46:37.871Z,67.14
2022-09-07T03:49:23.263Z,66.92
2022-09-07T03:52:08.856Z,67.21
2022-09-07T03:54:54.193Z,67.48
2022-09-07T03:57:40.439Z,67.26
2022-09-07T04:00:26.101Z,67.97
2022-09-07T04:03:11.483Z,67.99
2022-09-07T04:05:59.818Z,68.25
2022-09-07T04:08:45.824Z,68.43
2022-09-07T04:11:32.022Z,67.98
2022-09-07T04:14:17.946Z,68.06
2022-09-07T04:17:03.433Z,67.98
2022-09-07T04:19:49.297Z,67.68
2022-09-07T04:22:35.250Z,67.21
2022-09-07T04:25:20.898Z,67.23
2022-09-07T04:28:06.462Z,67.02
2022-09-07T04:30:51.911Z,67.00
2022-09-07T04:33:37.761Z,66.83
2022-09-07T04:36:24.966Z,66.45
2022-09-07T04:39:11.088Z,65.92
2022-09-07T04:41:56.851Z,65.99
2022-09-07T04:44:42.230Z,66.20
2022-09-07T04:47:30.594Z,65.70
2022-09-07T04:50:18.067Z,65.53
2022-09-07T04:53:03.839Z,65.36
2022-09-07T04:55:49.124Z,64.31
2022-09-07T04:58:35.333Z,63.20
2022-09-07T05:01:22.826Z,62.55
2022-09-07T05:04:09.035Z,61.67
2022-09-07T05:06:54.841Z,61.42
2022-09-07T05:09:40.434Z,60.94
2022-09-07T05:12:25.889Z,60.28
2022-09-07T05:15:11.575Z,60.23
2022-09-07T05:18:00.312Z,60.42
2022-09-07T05:20:45.751Z,59.09
2022-09-07T05:23:31.165Z,58.49
2022-09-07T05:26:17.165Z,57.83
2022-09-07T05:32:11.206Z,56.13
2022-09-07T05:34:56.502Z,54.92
2022-09-07T05:37:41.974Z,53.90
2022-09-07T05:40:31.820Z,53.58
2022-09-07T05:43:18.014Z,52.83
2022-09-07T05:46:03.961Z,52.84
2022-09-07T05:48:50.094Z,52.98
2022-09-07T05:51:37.239Z,52.04
2022-09-07T05:54:22.600Z,50.79
2022-09-07T05:57:11.466Z,48.93
2022-09-07T05:59:56.934Z,48.71
2022-09-07T06:02:43.397Z,49.25
2022-09-07T06:05:29.050Z,48.48
2022-09-07T06:08:14.422Z,48.76
2022-09-07T06:11:08.724Z,48.14
2022-09-07T06:13:54.214Z,48.61
2022-09-07T06:16:40.286Z,48.21
2022-09-07T06:19:25.587Z,48.17
2022-09-07T06:22:11.243Z,47.94
2022-09-07T06:24:56.899Z,48.77
2022-09-07T06:27:42.264Z,48.86
2022-09-07T06:30:27.795Z,48.94
2022-09-07T06:33:15.011Z,49.18
2022-09-07T06:36:05.238Z,49.44
2022-09-07T06:38:51.581Z,49.63
2022-09-07T06:44:48.188Z,50.82
2022-09-07T06:47:33.582Z,51.05
2022-09-07T06:50:18.888Z,50.12
2022-09-07T06:56:13.441Z,50.52
2022-09-07T06:58:59.833Z,49.92
2022-09-07T07:01:45.639Z,50.51
2022-09-07T07:04:30.874Z,51.22
2022-09-07T07:07:16.439Z,51.33
2022-09-07T07:10:01.890Z,51.19
2022-09-07T07:12:47.276Z,51.81
2022-09-07T07:15:33.420Z,52.14
2022-09-07T07:18:21.235Z,51.36
2022-09-07T07:21:12.807Z,52.22
2022-09-07T07:23:58.822Z,51.80
2022-09-07T07:26:48.579Z,51.30
2022-09-07T07:29:34.231Z,51.60
2022-09-07T07:32:19.767Z,52.12
2022-09-07T07:35:07.467Z,51.58
2022-09-07T07:44:05.585Z,51.35
2022-09-07T07:46:51.703Z,50.98
2022-09-07T07:49:37.309Z,51.33
2022-09-07T07:55:43.745Z,51.05
2022-09-07T07:58:32.512Z,51.21
2022-09-07T08:01:22.138Z,50.64
2022-09-07T08:04:08.125Z,50.55
2022-09-07T08:06:53.820Z,50.50
2022-09-07T08:09:44.465Z,50.49
2022-09-07T08:12:31.333Z,50.99
2022-09-07T08:15:16.880Z,50.03
2022-09-07T08:18:03.795Z,50.05
2022-09-07T08:20:49.396Z,49.85
2022-09-07T08:23:35.180Z,49.78
2022-09-07T08:26:20.883Z,49.94
2022-09-07T08:29:06.361Z,49.59
2022-09-07T08:31:52.123Z,49.55
2022-09-07T08:34:56.785Z,48.91
2022-09-07T08:37:42.069Z,48.57
2022-09-07T08:40:27.552Z,48.54
2022-09-07T08:43:21.647Z,47.46
2022-09-07T08:46:27.946Z,48.61
2022-09-07T08:49:20.419Z,49.06
2022-09-07T08:52:12.147Z,48.14
2022-09-07T08:55:10.969Z,48.24
2022-09-07T08:58:45.265Z,49.22
2022-09-07T09:01:33.145Z,48.46
2022-09-07T09:04:28.654Z,47.15
2022-09-07T09:07:36.081Z,48.27
2022-09-07T09:10:35.925Z,48.07
2022-09-07T09:13:34.762Z,46.46
2022-09-07T09:16:38.290Z,46.15
2022-09-07T09:20:08.170Z,46.59
2022-09-07T09:23:39.511Z,46.26
2022-09-07T09:26:27.368Z,46.97
2022-09-07T09:29:21.457Z,47.15
2022-09-07T09:32:41.418Z,46.07
2022-09-07T09:35:36.165Z,46.39
2022-09-07T09:38:29.489Z,45.46
2022-09-07T09:41:16.161Z,45.78
2022-09-07T09:44:03.437Z,45.76
2022-09-07T09:50:05.309Z,45.47
2022-09-07T09:52:52.779Z,45.80
2022-09-07T09:55:38.238Z,45.67
2022-09-07T10:04:51.787Z,45.46
2022-09-07T10:07:37.733Z,45.55
2022-09-07T10:10:23.761Z,45.86
2022-09-07T10:13:21.571Z,44.82
2022-09-07T10:16:09.227Z,45.22
2022-09-07T10:18:57.648Z,45.08
2022-09-07T10:21:57.998Z,44.99
2022-09-07T10:24:44.621Z,45.32
2022-09-07T10:27:33.187Z,45.86
2022-09-07T10:30:19.026Z,45.06
2022-09-07T10:33:12.258Z,44.72
2022-09-07T10:36:24.179Z,44.61
2022-09-07T10:39:25.654Z,45.03
2022-09-07T10:43:20.554Z,45.46
2022-09-07T10:46:06.873Z,44.96
2022-09-07T10:49:37.797Z,45.53
2022-09-07T10:52:23.971Z,44.31
2022-09-07T10:55:16.965Z,44.72
2022-09-07T10:58:21.131Z,45.18
2022-09-07T11:01:51.979Z,45.33
2022-09-07T11:05:31.085Z,45.22
2022-09-07T11:12:01.116Z,44.00
2022-09-07T11:14:52.615Z,43.62
2022-09-07T11:18:04.794Z,43.66
2022-09-07T11:20:55.576Z,42.95
2022-09-07T11:24:03.802Z,42.68
2022-09-07T11:26:55.204Z,43.32
2022-09-07T11:30:24.134Z,43.64
2022-09-07T11:33:25.332Z,43.79
2022-09-07T11:36:18.105Z,43.88
2022-09-07T11:39:17.497Z,43.59
2022-09-07T11:45:30.898Z,42.71
2022-09-07T11:48:41.702Z,42.20
2022-09-07T11:51:38.852Z,42.45
2022-09-07T11:54:43.157Z,42.98
2022-09-07T11:57:53.614Z,43.86
2022-09-07T12:00:43.726Z,44.56
2022-09-07T12:04:15.418Z,43.52
2022-09-07T12:07:26.890Z,42.42
2022-09-07T12:10:51.144Z,42.41
2022-09-07T12:13:58.500Z,41.91
2022-09-07T12:17:04.073Z,42.94
2022-09-07T12:20:18.641Z,42.79
2022-09-07T12:23:16.370Z,41.93
2022-09-07T12:26:33.471Z,42.00
2022-09-07T12:29:24.839Z,41.80
2022-09-07T12:35:33.983Z,42.66
2022-09-07T12:38:19.547Z,43.01
2022-09-07T12:41:24.873Z,42.97
2022-09-07T12:44:20.122Z,42.54
2022-09-07T12:47:12.577Z,42.92
2022-09-07T12:50:06.576Z,43.32
2022-09-07T12:53:10.800Z,42.00
2022-09-07T12:56:24.574Z,42.49
2022-09-07T12:59:32.754Z,42.48
2022-09-07T13:02:33.738Z,42.51
2022-09-07T13:05:35.925Z,41.76
2022-09-07T13:08:46.848Z,42.62
2022-09-07T13:11:38.437Z,42.55
2022-09-07T13:14:28.665Z,43.57
2022-09-07T13:17:34.798Z,42.09
2022-09-07T13:20:24.075Z,42.23
2022-09-07T13:23:21.283Z,42.49
2022-09-07T13:26:10.922Z,42.38
2022-09-07T13:29:00.965Z,42.01
2022-09-07T13:32:10.382Z,41.64
2022-09-07T13:35:03.430Z,41.63
2022-09-07T13:37:54.378Z,41.96
2022-09-07T13:40:47.033Z,41.70
2022-09-07T13:43:34.669Z,42.09
2022-09-07T13:46:32.253Z,42.64
2022-09-07T13:49:55.880Z,43.10
2022-09-07T13:53:07.204Z,43.17
2022-09-07T13:56:08.612Z,42.75
2022-09-07T13:58:55.147Z,42.19
2022-09-07T14:01:45.429Z,42.48
2022-09-07T14:04:41.264Z,43.09
2022-09-07T14:07:29.692Z,42.76
2022-09-07T14:10:25.147Z,43.34
2022-09-07T14:13:12.830Z,43.04
2022-09-07T14:15:58.636Z,43.22
2022-09-07T14:18:44.415Z,43.10
2022-09-07T14:21:31.292Z,43.30
2022-09-07T14:24:29.693Z,43.79
2022-09-07T14:27:35.006Z,43.54
2022-09-07T14:30:25.313Z,44.57
2022-09-07T14:33:17.401Z,44.28
2022-09-07T14:36:23.294Z,43.50
2022-09-07T14:39:12.251Z,42.99
2022-09-07T14:41:58.929Z,44.35
2022-09-07T14:44:45.416Z,43.85
2022-09-07T14:47:34.071Z,43.28
2022-09-07T14:50:34.710Z,43.26
2022-09-07T14:53:36.309Z,44.45
2022-09-07T14:56:31.489Z,44.98
2022-09-07T14:59:28.518Z,44.46
2022-09-07T15:02:28.237Z,44.05
2022-09-07T15:05:25.969Z,44.33
2022-09-07T15:08:20.383Z,43.92
2022-09-07T15:14:20.787Z,43.07
2022-09-07T15:20:42.747Z,43.46
2022-09-07T15:23:29.305Z,44.58
2022-09-07T15:29:21.576Z,44.46
2022-09-07T15:32:09.962Z,44.35
2022-09-07T15:34:55.354Z,44.55
2022-09-07T15:41:18.143Z,45.44
2022-09-07T15:43:57.893Z,46.39
2022-09-07T15:47:43.225Z,46.12
2022-09-07T15:49:51.512Z,46.41
2022-09-07T15:52:39.930Z,47.45
2022-09-07T15:55:25.740Z,47.90
2022-09-07T15:58:14.395Z,48.27
2022-09-07T16:04:07.206Z,49.51
2022-09-07T16:06:52.524Z,50.13
2022-09-07T16:09:37.985Z,49.83
2022-09-07T16:15:28.656Z,50.10
2022-09-07T16:18:17.133Z,49.72
2022-09-07T16:21:06.727Z,49.85
2022-09-07T16:23:54.162Z,49.76
2022-09-07T16:26:40.100Z,50.05
2022-09-07T16:29:26.670Z,50.07
2022-09-07T16:35:18.155Z,51.57
2022-09-07T16:41:17.080Z,53.20
2022-09-07T16:44:02.937Z,53.43
2022-09-07T16:46:50.412Z,54.13
2022-09-07T16:49:36.744Z,54.11
2022-09-07T16:52:23.380Z,54.70
2022-09-07T16:55:09.337Z,54.46
2022-09-07T17:01:00.178Z,54.46
2022-09-07T17:03:46.275Z,54.59
2022-09-07T17:06:31.717Z,54.97
2022-09-07T17:09:17.225Z,54.99
2022-09-07T17:12:03.641Z,55.91
2022-09-07T17:14:48.946Z,57.01
2022-09-07T17:17:34.446Z,57.71
2022-09-07T17:20:19.861Z,58.56
2022-09-07T17:23:05.400Z,58.92
2022-09-07T17:25:51.023Z,58.92
2022-09-07T17:28:37.626Z,59.63
2022-09-07T17:34:31.596Z,60.38
2022-09-07T17:37:17.736Z,60.06
2022-09-07T17:40:05.745Z,60.45
2022-09-07T17:46:03.012Z,62.56
2022-09-07T17:48:57.115Z,62.85
2022-09-07T17:51:43.860Z,62.34
2022-09-07T17:54:29.065Z,62.35
2022-09-07T17:57:14.422Z,62.10
2022-09-07T18:00:16.213Z,62.55
2022-09-07T18:03:03.513Z,64.12
2022-09-07T18:05:53.634Z,64.78
2022-09-07T18:08:39.576Z,65.71
2022-09-07T18:14:31.049Z,66.52
2022-09-07T18:17:16.796Z,66.52
2022-09-07T18:20:02.497Z,66.66
2022-09-07T18:22:48.435Z,66.54
2022-09-07T18:25:34.472Z,66.41
2022-09-07T18:31:26.178Z,66.70
2022-09-07T18:34:12.116Z,66.91
2022-09-07T18:36:58.226Z,66.90
2022-09-07T18:39:43.736Z,67.08
2022-09-07T18:42:30.318Z,67.35
2022-09-07T18:45:31.225Z,67.31
2022-09-07T18:48:16.793Z,67.38
2022-09-07T18:51:02.742Z,67.81
2022-09-07T18:53:48.509Z,67.98
2022-09-07T18:56:34.011Z,68.02
2022-09-07T18:59:19.476Z,68.09
2022-09-07T19:02:08.021Z,68.05
2022-09-07T19:08:03.511Z,68.09
2022-09-07T19:10:49.113Z,67.71
2022-09-07T19:13:35.858Z,67.19
2022-09-07T19:16:21.587Z,66.61
2022-09-07T19:19:07.464Z,66.20
2022-09-07T19:21:54.576Z,66.20
2022-09-07T19:24:40.099Z,66.10
2022-09-07T19:27:27.124Z,66.15
2022-09-07T19:30:13.286Z,66.25
2022-09-07T19:33:03.996Z,66.56
2022-09-07T19:35:50.780Z,66.64
2022-09-07T19:38:37.007Z,66.64
2022-09-07T19:41:22.620Z,66.63
2022-09-07T19:44:08.546Z,67.00
2022-09-07T19:46:53.857Z,67.29
2022-09-07T19:49:39.347Z,67.62
2022-09-07T19:52:24.714Z,67.65
2022-09-07T19:55:10.133Z,67.48
2022-09-07T19:57:55.572Z,67.38
2022-09-07T20:00:41.827Z,66.91
2022-09-07T20:03:27.247Z,66.45
2022-09-07T20:06:15.716Z,66.54
2022-09-07T20:09:03.244Z,67.36
2022-09-07T20:11:52.864Z,66.92
2022-09-07T20:14:38.158Z,67.06
2022-09-07T20:17:24.175Z,67.11
2022-09-07T20:20:10.085Z,67.26
2022-09-07T20:22:55.858Z,67.54
2022-09-07T20:25:41.097Z,67.07
2022-09-07T20:28:27.243Z,67.15
2022-09-07T20:31:20.314Z,66.95
2022-09-07T20:34:05.886Z,66.67
2022-09-07T20:36:52.204Z,66.83
2022-09-07T20:39:39.568Z,66.83
2022-09-07T20:42:25.491Z,66.62
2022-09-07T20:45:11.037Z,66.40
2022-09-07T20:47:56.280Z,66.84
2022-09-07T20:50:42.039Z,66.88
2022-09-07T20:53:31.362Z,67.09
2022-09-07T20:56:22.377Z,66.87
2022-09-07T20:59:08.172Z,66.84
2022-09-07T21:01:53.660Z,66.55
2022-09-07T21:04:42.197Z,66.76
2022-09-07T21:07:27.448Z,66.62
2022-09-07T21:10:12.883Z,66.71
2022-09-07T21:12:58.176Z,65.89
2022-09-07T21:15:44.919Z,65.63
2022-09-07T21:18:30.486Z,65.94
2022-09-07T21:21:20.374Z,66.53
2022-09-07T21:24:12.937Z,66.89
2022-09-07T21:26:58.340Z,67.32
2022-09-07T21:29:43.972Z,67.13
2022-09-07T21:32:29.290Z,67.36
2022-09-07T21:35:14.720Z,67.16
2022-09-07T21:38:00.701Z,66.91
2022-09-07T21:40:46.216Z,67.21
2022-09-07T21:43:31.654Z,67.20
2022-09-07T21:46:18.709Z,67.53
2022-09-07T21:49:04.704Z,67.30
2022-09-07T21:51:50.374Z,67.17
2022-09-07T21:54:35.901Z,67.06
2022-09-07T21:57:21.163Z,67.27
2022-09-07T22:00:08.816Z,66.92
2022-09-07T22:02:54.705Z,66.49
2022-09-07T22:05:40.111Z,66.57
2022-09-07T22:08:25.581Z,66.33
2022-09-07T22:11:17.446Z,66.36
2022-09-07T22:14:04.476Z,66.40
2022-09-07T22:16:50.087Z,66.57
2022-09-07T22:19:35.817Z,66.81
2022-09-07T22:22:21.422Z,66.63
2022-09-07T22:25:06.979Z,66.46
2022-09-07T22:27:53.429Z,66.70
2022-09-07T22:30:39.005Z,66.92
2022-09-07T22:33:24.350Z,67.39
2022-09-07T22:36:25.052Z,67.10
2022-09-07T22:39:16.796Z,67.17
2022-09-07T22:42:02.427Z,67.66
2022-09-07T22:44:47.784Z,67.55
2022-09-07T22:47:33.274Z,67.73
2022-09-07T22:50:20.379Z,68.28
2022-09-07T22:53:05.528Z,67.99
2022-09-07T22:55:50.927Z,68.01
2022-09-07T22:58:37.335Z,68.12
2022-09-07T23:01:23.566Z,68.15
2022-09-07T23:04:10.498Z,68.01
2022-09-07T23:06:56.847Z,68.26
2022-09-07T23:09:41.995Z,68.01
2022-09-07T23:12:27.419Z,67.76
2022-09-07T23:15:12.710Z,67.41
2022-09-07T23:17:58.571Z,67.44
2022-09-07T23:20:44.194Z,67.49
2022-09-07T23:23:29.896Z,67.79
2022-09-07T23:26:15.088Z,67.66
2022-09-07T23:29:03.429Z,67.91
2022-09-07T23:31:49.024Z,67.88
2022-09-07T23:34:34.676Z,67.64
2022-09-07T23:37:19.994Z,67.97
2022-09-07T23:40:06.420Z,67.54
2022-09-07T23:42:51.799Z,68.00
2022-09-07T23:45:37.134Z,68.43
2022-09-07T23:48:25.141Z,68.26
2022-09-07T23:51:11.916Z,68.42
2022-09-07T23:53:57.280Z,68.46
2022-09-07T23:56:42.893Z,68.64
2022-09-07T23:59:28.090Z,68.48
